首页
METAR-TAF:

METAR-TAF

机场 :

Fort St. John, 不列颠哥伦比亚, 加拿大

纬度: 56-14N, 经度: 120-44W, 海拔: 695米

当前天气观测

该预报发布于25分钟前的19:00 UTC
风速16节,风向北转东北,有时为26节阵风
温度 6°C
湿度 70%
气压 1009 hPa
能見度: 80.5公里
少量云层高于2200英尺
多云层高于3300英尺
多云层高于20000英尺

METAR: CYXJ 181900Z 03016G26KT 50SM FEW022 BKN033 BKN200 06/01 A2981 RMK CU1SC4CI2 SLP118

时间: 12:25 (19:25 UTC)

预报

该预报发布于47分钟前的18:38 UTC
预报有效从18日的 19点(UTC)到 19日的 07点(UTC)
风速15节,风向
能見度: 10公里
散云层高于2000英尺
多云层高于5000英尺
短暂存在
从 18日的 19点(UTC)到 18日的 21点(UTC)
多云层高于2000英尺

TAF: CYXJ 181838Z 1819/1907 01015KT P6SM SCT020 BKN050 TEMPO 1819/1821 BKN020 RMK NXT FCST BY 190100Z

超过4000个机场的气象观测和天气预报(METAR&TAF报告)。

可查询的气象台以黄色和红色小点在地图上表示。

将鼠标移到小点上方,可查看气象台名称。

然后点击查看天气观测和预报。

如需切换地图:点击带黑十字的绿色按钮放大地图;点击带横线的绿色按钮缩小地图;或者点击绿色箭头查看邻近地区的地图。


METAR-TAF: